SBBRYZYX KWBCYMYX SOZZMAMX SYZZMAMX TBPBYMYX TNCCYMYX

TNCAYMYX TFFFYMYX TFFRYMYX TTPPYMYX EGZZMNAM

252200 SMJPYMYX

FTSM20 SMJP 252200

TAF SMJP 252200Z 2600/2624 05003KT CAVOK TX34/2618Z TN23/2610Z TEMPO 2609/2611 3000 BR FM261200 12010KT 9999 SCT020 PROB30 TEMPO 2619/2622 VRB10G20KT 8000 –TSRA FEW018CB=

 

TAF SMZO 252200Z 2600/2624 06004KT CAVOK TX34/2618Z TN25/2610Z FM261200 12010KT 9999 SCT020 PROB30 TEMPO 2618/2621 VRB10G20KT 8000 – TSRA FEW018CB=

 

 

JS

OCTOBER 25, 2014